Terminal Aerodrome Forecast
Issued by NWS

Home | Current Version | Previous Version | Text Only | Print | Product List | Glossary On
Versions: 1 2 3 4 5 6 7 8 9 10 11 12 13 14 15 16 17
000
FTUS45 KFGZ 242331
TAFGCN
TAF
KGCN 242331Z 2500/2524 VRB06KT P6SM SKC
     FM250200 24005KT P6SM FEW250
     FM252000 23010G18KT P6SM -SHRA BKN040
      TEMPO 2521/2524 3SM SHRA BR OVC020=

USA.gov is the U.S. government's official web portal to all federal, state and local government web resources and services.